createdAt,value
2018-12-23T00:01:49.980Z,3.59
2018-12-23T00:04:18.849Z,3.64
2018-12-23T00:06:47.758Z,3.64
2018-12-23T00:09:16.744Z,3.73
2018-12-23T00:11:45.445Z,3.64
2018-12-23T00:14:16.485Z,3.61
2018-12-23T00:16:45.274Z,3.68
2018-12-23T00:19:14.569Z,3.60
2018-12-23T00:21:43.499Z,3.71
2018-12-23T00:24:12.500Z,3.74
2018-12-23T00:26:41.225Z,3.50
2018-12-23T00:29:09.979Z,3.56
2018-12-23T00:31:38.733Z,3.38
2018-12-23T00:34:07.863Z,3.15
2018-12-23T00:36:37.052Z,2.83
2018-12-23T00:39:07.398Z,2.81
2018-12-23T00:41:36.735Z,2.88
2018-12-23T00:44:06.713Z,2.94
2018-12-23T00:46:35.360Z,2.95
2018-12-23T00:49:04.168Z,3.00
2018-12-23T00:51:32.919Z,2.96
2018-12-23T00:54:01.684Z,2.99
2018-12-23T00:56:30.448Z,3.05
2018-12-23T00:58:59.190Z,3.06
2018-12-23T01:01:27.956Z,3.14
2018-12-23T01:03:56.673Z,3.23
2018-12-23T01:06:25.474Z,3.30
2018-12-23T01:08:54.904Z,3.38
2018-12-23T01:11:23.607Z,3.34
2018-12-23T01:13:52.435Z,3.43
2018-12-23T01:16:21.512Z,3.51
2018-12-23T01:18:50.273Z,3.53
2018-12-23T01:24:34.707Z,3.66
2018-12-23T01:27:04.622Z,3.71
2018-12-23T01:29:34.584Z,3.79
2018-12-23T01:32:04.495Z,3.74
2018-12-23T01:34:37.180Z,3.74
2018-12-23T01:37:06.114Z,3.74
2018-12-23T01:39:36.102Z,3.74
2018-12-23T01:42:06.073Z,3.80
2018-12-23T01:44:35.966Z,3.77
2018-12-23T01:47:05.893Z,3.80
2018-12-23T01:49:35.802Z,3.82
2018-12-23T01:52:05.809Z,3.87
2018-12-23T01:54:35.856Z,3.86
2018-12-23T01:57:05.925Z,3.90
2018-12-23T01:59:35.969Z,3.86
2018-12-23T02:02:06.174Z,3.85
2018-12-23T02:04:36.150Z,3.91
2018-12-23T02:07:07.742Z,3.87
2018-12-23T02:09:38.211Z,3.92
2018-12-23T02:12:08.410Z,3.98
2018-12-23T02:14:38.394Z,3.92
2018-12-23T02:17:11.261Z,3.84
2018-12-23T02:19:41.480Z,3.86
2018-12-23T02:22:11.451Z,3.87
2018-12-23T02:24:45.000Z,3.98
2018-12-23T02:27:14.934Z,3.94
2018-12-23T02:29:45.009Z,3.98
2018-12-23T02:32:14.938Z,3.88
2018-12-23T02:34:44.913Z,3.90
2018-12-23T02:37:14.916Z,3.93
2018-12-23T02:39:44.848Z,3.55
2018-12-23T02:42:14.791Z,3.40
2018-12-23T02:44:44.698Z,3.47
2018-12-23T02:47:14.646Z,3.51
2018-12-23T02:49:44.584Z,3.57
2018-12-23T02:52:14.517Z,3.58
2018-12-23T02:54:44.759Z,3.65
2018-12-23T02:57:14.670Z,3.77
2018-12-23T02:59:44.586Z,3.71
2018-12-23T03:02:14.541Z,3.87
2018-12-23T03:04:44.489Z,3.96
2018-12-23T03:07:14.410Z,4.05
2018-12-23T03:09:44.329Z,4.18
2018-12-23T03:12:14.251Z,4.23
2018-12-23T03:14:44.179Z,4.23
2018-12-23T03:17:14.145Z,4.22
2018-12-23T03:19:44.061Z,4.26
2018-12-23T03:22:13.936Z,4.38
2018-12-23T03:24:43.843Z,4.49
2018-12-23T03:27:13.731Z,4.99
2018-12-23T03:29:43.620Z,5.37
2018-12-23T03:32:13.500Z,5.68
2018-12-23T03:34:43.627Z,5.92
2018-12-23T03:37:13.570Z,6.18
2018-12-23T03:39:43.521Z,6.32
2018-12-23T03:42:13.457Z,6.46
2018-12-23T03:44:43.360Z,6.52
2018-12-23T03:47:13.297Z,6.62
2018-12-23T03:49:43.226Z,6.70
2018-12-23T03:52:13.198Z,6.84
2018-12-23T03:54:43.093Z,6.90
2018-12-23T03:57:13.624Z,6.87
2018-12-23T03:59:43.946Z,6.96
2018-12-23T04:02:13.849Z,7.03
2018-12-23T04:04:43.779Z,7.05
2018-12-23T04:07:13.648Z,7.10
2018-12-23T04:09:43.568Z,7.11
2018-12-23T04:12:13.454Z,7.14
2018-12-23T04:14:43.382Z,7.18
2018-12-23T04:17:13.368Z,6.96
2018-12-23T04:19:43.268Z,6.56
2018-12-23T04:22:13.166Z,6.34
2018-12-23T04:24:44.134Z,6.13
2018-12-23T04:27:14.087Z,6.06
2018-12-23T04:29:44.095Z,6.07
2018-12-23T04:32:14.015Z,6.10
2018-12-23T04:34:43.941Z,6.16
2018-12-23T04:37:14.085Z,6.26
2018-12-23T04:39:44.003Z,6.38
2018-12-23T04:42:13.954Z,6.47
2018-12-23T04:44:43.884Z,6.58
2018-12-23T04:47:13.832Z,6.69
2018-12-23T04:49:43.731Z,6.67
2018-12-23T04:52:13.686Z,6.64
2018-12-23T04:54:43.644Z,6.62
2018-12-23T04:57:13.567Z,6.66
2018-12-23T04:59:43.515Z,6.76
2018-12-23T05:02:13.453Z,6.70
2018-12-23T05:04:43.368Z,6.59
2018-12-23T05:07:13.291Z,6.64
2018-12-23T05:09:43.158Z,6.69
2018-12-23T05:12:15.723Z,6.74
2018-12-23T05:14:45.634Z,6.67
2018-12-23T05:17:15.599Z,6.63
2018-12-23T05:19:45.600Z,6.62
2018-12-23T05:22:17.167Z,6.55
2018-12-23T05:24:47.284Z,6.51
2018-12-23T05:27:17.243Z,6.48
2018-12-23T05:29:47.231Z,6.45
2018-12-23T05:32:17.179Z,6.44
2018-12-23T05:34:47.080Z,6.42
2018-12-23T05:37:16.995Z,6.49
2018-12-23T05:39:46.900Z,6.60
2018-12-23T05:42:18.275Z,6.48
2018-12-23T05:44:48.225Z,6.55
2018-12-23T05:47:18.163Z,6.70
2018-12-23T05:49:48.086Z,6.84
2018-12-23T05:52:17.993Z,6.95
2018-12-23T05:54:47.868Z,6.98
2018-12-23T05:57:17.767Z,7.10
2018-12-23T05:59:47.640Z,7.09
2018-12-23T06:02:17.533Z,7.01
2018-12-23T06:04:47.502Z,6.97
2018-12-23T06:07:17.457Z,6.95
2018-12-23T06:09:47.509Z,6.93
2018-12-23T06:12:17.403Z,6.92
2018-12-23T06:14:47.310Z,6.96
2018-12-23T06:17:17.193Z,6.90
2018-12-23T06:19:47.101Z,6.84
2018-12-23T06:22:17.013Z,6.83
2018-12-23T06:24:46.929Z,6.81
2018-12-23T06:27:16.821Z,6.78
2018-12-23T06:29:46.768Z,6.83
2018-12-23T06:32:16.651Z,6.81
2018-12-23T06:34:47.105Z,6.86
2018-12-23T06:37:17.027Z,6.92
2018-12-23T06:39:46.972Z,7.02
2018-12-23T06:42:16.895Z,6.86
2018-12-23T06:44:46.761Z,6.90
2018-12-23T06:47:16.652Z,6.95
2018-12-23T06:50:01.026Z,6.95
2018-12-23T06:52:30.917Z,6.94
2018-12-23T06:55:00.819Z,7.07
2018-12-23T06:57:30.703Z,7.20
2018-12-23T07:00:00.744Z,7.34
2018-12-23T07:02:30.632Z,7.29
2018-12-23T07:05:00.672Z,7.20
2018-12-23T07:07:30.548Z,7.28
2018-12-23T07:10:00.559Z,7.34
2018-12-23T07:12:30.493Z,7.39
2018-12-23T07:15:00.477Z,7.37
2018-12-23T07:17:30.450Z,7.18
2018-12-23T07:20:00.912Z,7.14
2018-12-23T07:22:30.953Z,7.27
2018-12-23T07:25:00.928Z,7.39
2018-12-23T07:27:30.956Z,7.52
2018-12-23T07:30:00.936Z,7.63
2018-12-23T07:32:30.867Z,7.74
2018-12-23T07:35:00.805Z,7.90
2018-12-23T07:37:30.751Z,8.02
2018-12-23T07:40:00.696Z,8.05
2018-12-23T07:42:31.703Z,8.02
2018-12-23T07:45:01.615Z,8.04
2018-12-23T07:47:31.564Z,8.09
2018-12-23T07:50:01.476Z,8.18
2018-12-23T07:52:31.395Z,8.28
2018-12-23T07:55:01.301Z,8.33
2018-12-23T07:57:31.236Z,8.28
2018-12-23T08:00:01.154Z,8.14
2018-12-23T08:02:31.044Z,8.00
2018-12-23T08:05:00.934Z,7.73
2018-12-23T08:07:36.179Z,7.67
2018-12-23T08:10:02.772Z,7.56
2018-12-23T08:12:32.700Z,7.67
2018-12-23T08:15:02.610Z,7.74
2018-12-23T08:17:32.511Z,7.93
2018-12-23T08:20:02.437Z,8.15
2018-12-23T08:22:32.294Z,8.34
2018-12-23T08:25:02.234Z,8.45
2018-12-23T08:27:32.294Z,8.57
2018-12-23T08:30:02.641Z,8.70
2018-12-23T08:32:33.004Z,8.86
2018-12-23T08:35:02.923Z,9.00
2018-12-23T08:37:32.850Z,9.11
2018-12-23T08:40:02.748Z,9.15
2018-12-23T08:42:32.718Z,9.08
2018-12-23T08:45:02.604Z,9.02
2018-12-23T08:47:32.495Z,8.98
2018-12-23T08:50:02.395Z,9.06
2018-12-23T08:52:32.259Z,9.11
2018-12-23T08:55:02.164Z,9.12
2018-12-23T08:57:32.096Z,9.18
2018-12-23T09:00:01.997Z,9.24
2018-12-23T09:02:31.888Z,9.27
2018-12-23T09:05:01.801Z,9.27
2018-12-23T09:07:31.708Z,9.27
2018-12-23T09:10:01.652Z,9.24
2018-12-23T09:12:31.585Z,9.20
2018-12-23T09:15:01.491Z,9.02
2018-12-23T09:17:31.412Z,8.86
2018-12-23T09:20:01.306Z,8.80
2018-12-23T09:22:31.200Z,8.73
2018-12-23T09:25:01.088Z,8.76
2018-12-23T09:27:30.980Z,8.71
2018-12-23T09:30:00.882Z,8.65
2018-12-23T09:32:30.788Z,8.60
2018-12-23T09:35:00.696Z,8.57
2018-12-23T09:37:30.591Z,8.62
2018-12-23T09:40:00.509Z,8.61
2018-12-23T09:42:30.436Z,8.60
2018-12-23T09:45:00.386Z,8.62
2018-12-23T09:47:30.428Z,8.64
2018-12-23T09:50:00.339Z,8.71
2018-12-23T09:52:30.265Z,8.75
2018-12-23T09:55:00.116Z,8.81
2018-12-23T09:57:30.191Z,8.89
2018-12-23T10:00:00.160Z,8.92
2018-12-23T10:02:30.008Z,8.97
2018-12-23T10:04:59.974Z,9.08
2018-12-23T10:07:29.939Z,9.17
2018-12-23T10:09:59.829Z,9.21
2018-12-23T10:12:29.809Z,9.25
2018-12-23T10:14:59.785Z,9.33
2018-12-23T10:17:29.687Z,9.30
2018-12-23T10:19:59.594Z,9.30
2018-12-23T10:22:29.495Z,9.29
2018-12-23T10:24:59.436Z,9.33
2018-12-23T10:27:29.491Z,9.43
2018-12-23T10:29:59.433Z,9.45
2018-12-23T10:32:29.373Z,9.40
2018-12-23T10:34:59.292Z,9.38
2018-12-23T10:37:29.185Z,9.35
2018-12-23T10:39:59.081Z,9.32
2018-12-23T10:42:29.082Z,9.26
2018-12-23T10:44:58.996Z,9.23
2018-12-23T10:47:29.236Z,9.21
2018-12-23T10:49:59.193Z,9.32
2018-12-23T10:52:29.122Z,9.39
2018-12-23T10:54:59.270Z,9.43
2018-12-23T10:57:29.421Z,9.47
2018-12-23T10:59:59.367Z,9.47
2018-12-23T11:02:29.267Z,9.43
2018-12-23T11:04:59.473Z,9.40
2018-12-23T11:07:29.450Z,9.35
2018-12-23T11:10:02.147Z,9.31
2018-12-23T11:12:31.126Z,9.33
2018-12-23T11:15:01.052Z,9.40
2018-12-23T11:17:30.996Z,9.47
2018-12-23T11:20:00.869Z,9.52
2018-12-23T11:22:30.771Z,9.61
2018-12-23T11:25:00.705Z,9.53
2018-12-23T11:27:30.632Z,9.52
2018-12-23T11:30:00.568Z,9.55
2018-12-23T11:32:30.502Z,9.58
2018-12-23T11:35:00.449Z,9.52
2018-12-23T11:37:30.423Z,9.63
2018-12-23T11:40:00.318Z,9.65
2018-12-23T11:42:30.344Z,9.64
2018-12-23T11:45:00.296Z,9.72
2018-12-23T11:47:30.189Z,9.70
2018-12-23T11:50:00.151Z,9.83
2018-12-23T11:52:30.131Z,10.02
2018-12-23T11:55:00.149Z,10.19
2018-12-23T11:57:30.132Z,10.29
2018-12-23T12:00:00.095Z,10.39
2018-12-23T12:02:30.065Z,10.57
2018-12-23T12:04:59.999Z,10.65
2018-12-23T12:07:29.932Z,10.66
2018-12-23T12:09:59.855Z,10.68
2018-12-23T12:12:29.752Z,10.65
2018-12-23T12:14:59.795Z,10.61
2018-12-23T12:17:29.714Z,10.62
2018-12-23T12:19:59.638Z,10.49
2018-12-23T12:22:29.562Z,10.46
2018-12-23T12:24:59.542Z,10.44
2018-12-23T12:27:29.436Z,10.37
2018-12-23T12:29:59.399Z,10.17
2018-12-23T12:32:29.364Z,10.17
2018-12-23T12:35:01.596Z,9.99
2018-12-23T12:37:31.561Z,9.89
2018-12-23T12:40:01.442Z,9.96
2018-12-23T12:42:31.418Z,10.01
2018-12-23T12:45:01.385Z,9.83
2018-12-23T12:47:31.312Z,9.72
2018-12-23T12:50:01.230Z,9.71
2018-12-23T12:52:31.161Z,9.57
2018-12-23T12:55:01.078Z,9.49
2018-12-23T12:57:30.969Z,9.41
2018-12-23T13:00:00.866Z,9.38
2018-12-23T13:02:30.803Z,9.20
2018-12-23T13:05:00.759Z,9.12
2018-12-23T13:07:30.696Z,8.99
2018-12-23T13:10:00.587Z,8.88
2018-12-23T13:12:30.559Z,8.89
2018-12-23T13:15:00.514Z,8.82
2018-12-23T13:17:30.449Z,8.67
2018-12-23T13:20:00.371Z,8.65
2018-12-23T13:22:30.337Z,8.57
2018-12-23T13:25:00.287Z,8.62
2018-12-23T13:27:30.215Z,8.62
2018-12-23T13:30:00.197Z,8.58
2018-12-23T13:32:30.200Z,8.53
2018-12-23T13:35:00.161Z,8.52
2018-12-23T13:37:30.049Z,8.51
2018-12-23T13:40:06.973Z,8.45
2018-12-23T13:42:58.289Z,8.41
2018-12-23T13:46:13.278Z,8.42
2018-12-23T13:49:25.563Z,8.50
2018-12-23T13:52:38.465Z,8.36
2018-12-23T13:55:37.142Z,8.29
2018-12-23T13:58:29.112Z,8.27
2018-12-23T14:01:32.171Z,8.27
2018-12-23T14:04:37.057Z,8.29
2018-12-23T14:07:36.071Z,8.28
2018-12-23T14:10:52.753Z,8.23
2018-12-23T14:13:22.716Z,8.22
2018-12-23T14:15:52.699Z,8.19
2018-12-23T14:18:22.621Z,8.14
2018-12-23T14:20:52.599Z,8.14
2018-12-23T14:23:22.782Z,8.12
2018-12-23T14:25:52.748Z,8.10
2018-12-23T14:28:22.674Z,8.08
2018-12-23T14:30:52.589Z,8.04
2018-12-23T14:33:22.597Z,8.09
2018-12-23T14:35:52.571Z,8.07
2018-12-23T14:38:22.485Z,8.06
2018-12-23T14:40:52.465Z,8.06
2018-12-23T14:43:22.373Z,8.04
2018-12-23T14:45:52.317Z,7.97
2018-12-23T14:48:22.323Z,7.92
2018-12-23T14:50:52.464Z,7.91
2018-12-23T14:53:22.396Z,7.85
2018-12-23T14:55:52.284Z,7.86
2018-12-23T14:58:22.222Z,7.84
2018-12-23T15:00:52.212Z,7.81
2018-12-23T15:03:22.161Z,7.77
2018-12-23T15:05:52.101Z,7.77
2018-12-23T15:08:22.031Z,7.76
2018-12-23T15:10:51.989Z,7.73
2018-12-23T15:13:21.961Z,7.69
2018-12-23T15:15:51.935Z,7.76
2018-12-23T15:18:21.894Z,7.77
2018-12-23T15:20:51.822Z,7.79
2018-12-23T15:23:21.799Z,7.77
2018-12-23T15:25:51.780Z,7.74
2018-12-23T15:28:21.720Z,7.69
2018-12-23T15:30:51.667Z,7.71
2018-12-23T15:33:23.848Z,7.72
2018-12-23T15:35:53.862Z,7.82
2018-12-23T15:38:23.825Z,7.83
2018-12-23T15:40:53.829Z,7.81
2018-12-23T15:43:23.758Z,7.81
2018-12-23T15:45:53.693Z,7.85
2018-12-23T15:48:24.933Z,7.85
2018-12-23T15:50:54.802Z,7.86
2018-12-23T15:53:24.710Z,7.93
2018-12-23T15:55:54.650Z,7.89
2018-12-23T15:58:24.684Z,7.84
2018-12-23T16:00:54.661Z,7.82
2018-12-23T16:03:24.619Z,7.85
2018-12-23T16:05:54.552Z,7.84
2018-12-23T16:08:24.545Z,7.80
2018-12-23T16:10:54.519Z,7.80
2018-12-23T16:13:24.609Z,7.81
2018-12-23T16:15:54.519Z,7.75
2018-12-23T16:18:24.515Z,7.75
2018-12-23T16:20:54.518Z,7.71
2018-12-23T16:23:24.465Z,7.70
2018-12-23T16:25:54.400Z,7.74
2018-12-23T16:28:24.326Z,7.75
2018-12-23T16:30:54.244Z,7.77
2018-12-23T16:33:24.169Z,7.80
2018-12-23T16:35:54.121Z,7.79
2018-12-23T16:38:24.165Z,7.74
2018-12-23T16:40:54.050Z,7.75
2018-12-23T16:43:23.962Z,7.79
2018-12-23T16:45:53.868Z,7.72
2018-12-23T16:48:23.825Z,7.72
2018-12-23T16:50:53.751Z,7.69
2018-12-23T16:53:23.717Z,7.74
2018-12-23T16:55:53.672Z,7.76
2018-12-23T16:58:23.661Z,7.73
2018-12-23T17:00:53.620Z,7.71
2018-12-23T17:03:23.535Z,7.70
2018-12-23T17:05:53.440Z,7.60
2018-12-23T17:08:23.403Z,7.56
2018-12-23T17:10:53.332Z,7.51
2018-12-23T17:13:23.313Z,7.48
2018-12-23T17:15:53.284Z,7.48
2018-12-23T17:18:23.213Z,7.50
2018-12-23T17:20:53.128Z,7.45
2018-12-23T17:23:23.056Z,7.43
2018-12-23T17:25:53.027Z,7.40
2018-12-23T17:28:22.983Z,7.37
2018-12-23T17:30:52.947Z,7.39
2018-12-23T17:33:22.871Z,7.40
2018-12-23T17:35:52.807Z,7.38
2018-12-23T17:38:22.750Z,7.37
2018-12-23T17:40:52.656Z,7.39
2018-12-23T17:43:22.595Z,7.31
2018-12-23T17:45:52.580Z,7.33
2018-12-23T17:48:22.547Z,7.25
2018-12-23T17:50:52.432Z,7.21
2018-12-23T17:53:22.443Z,7.26
2018-12-23T17:55:52.323Z,7.27
2018-12-23T17:58:22.347Z,7.28
2018-12-23T18:00:52.330Z,7.32
2018-12-23T18:03:22.239Z,7.30
2018-12-23T18:05:52.244Z,7.30
2018-12-23T18:08:22.163Z,7.34
2018-12-23T18:10:52.089Z,7.31
2018-12-23T18:13:22.049Z,7.34
2018-12-23T18:15:52.026Z,7.36
2018-12-23T18:18:22.004Z,7.33
2018-12-23T18:20:52.102Z,7.33
2018-12-23T18:23:22.202Z,7.32
2018-12-23T18:25:52.244Z,7.28
2018-12-23T18:28:22.320Z,7.29
2018-12-23T18:30:52.315Z,7.29
2018-12-23T18:33:22.400Z,7.29
2018-12-23T18:35:52.387Z,7.28
2018-12-23T18:38:22.471Z,7.22
2018-12-23T18:40:52.350Z,7.12
2018-12-23T18:43:22.284Z,7.08
2018-12-23T18:45:52.236Z,7.10
2018-12-23T18:48:22.500Z,7.09
2018-12-23T18:50:52.453Z,7.11
2018-12-23T18:53:22.552Z,7.19
2018-12-23T18:55:52.489Z,7.22
2018-12-23T18:58:22.550Z,7.28
2018-12-23T19:00:56.473Z,7.25
2018-12-23T19:03:26.510Z,7.25
2018-12-23T19:05:56.465Z,7.32
2018-12-23T19:08:37.288Z,7.30
2018-12-23T19:11:42.885Z,7.39
2018-12-23T19:14:39.046Z,7.43
2018-12-23T19:18:09.092Z,7.45
2018-12-23T19:21:17.589Z,7.50
2018-12-23T19:24:51.020Z,7.51
2018-12-23T19:28:03.044Z,7.55
2018-12-23T19:31:22.391Z,7.49
2018-12-23T19:34:09.146Z,7.40
2018-12-23T19:37:21.383Z,7.32
2018-12-23T19:40:34.654Z,7.30
2018-12-23T19:43:41.057Z,7.22
2018-12-23T19:46:57.350Z,6.93
2018-12-23T19:50:08.692Z,6.57
2018-12-23T19:53:21.481Z,6.26
2018-12-23T19:56:09.981Z,6.10
2018-12-23T19:59:23.375Z,5.88
2018-12-23T20:02:15.005Z,5.75
2018-12-23T20:05:20.186Z,5.59
2018-12-23T20:08:36.661Z,5.53
2018-12-23T20:11:50.449Z,5.51
2018-12-23T20:15:03.934Z,5.43
2018-12-23T20:18:04.290Z,5.34
2018-12-23T20:21:10.091Z,5.24
2018-12-23T20:24:39.769Z,5.25
2018-12-23T20:28:05.104Z,5.21
2018-12-23T20:31:05.425Z,5.07
2018-12-23T20:34:06.537Z,5.01
2018-12-23T20:37:20.528Z,4.97
2018-12-23T20:40:31.298Z,4.96
2018-12-23T20:43:40.340Z,5.04
2018-12-23T20:46:44.486Z,5.00
2018-12-23T20:49:51.346Z,4.97
2018-12-23T20:52:45.802Z,4.99
2018-12-23T20:56:15.570Z,5.02
2018-12-23T20:59:40.823Z,5.04
2018-12-23T21:02:55.092Z,5.01
2018-12-23T21:06:29.940Z,4.96
2018-12-23T21:09:36.565Z,5.00
2018-12-23T21:12:50.193Z,4.91
2018-12-23T21:15:55.504Z,4.80
2018-12-23T21:18:52.354Z,4.83
2018-12-23T21:22:11.757Z,4.87
2018-12-23T21:25:17.375Z,4.85
2018-12-23T21:28:20.063Z,4.74
2018-12-23T21:31:34.203Z,4.67
2018-12-23T21:34:43.485Z,4.65
2018-12-23T21:38:00.914Z,4.66
2018-12-23T21:41:26.926Z,4.61
2018-12-23T21:44:53.041Z,4.57
2018-12-23T21:47:43.981Z,4.54
2018-12-23T21:51:12.938Z,4.52
2018-12-23T21:54:08.699Z,4.56
2018-12-23T21:57:21.387Z,4.61
2018-12-23T22:00:29.961Z,4.59
2018-12-23T22:03:46.853Z,4.58
2018-12-23T22:06:50.443Z,4.60
2018-12-23T22:10:03.445Z,4.55
2018-12-23T22:13:25.963Z,4.51
2018-12-23T22:15:56.071Z,4.55
2018-12-23T22:18:27.069Z,4.57
2018-12-23T22:20:57.455Z,4.60
2018-12-23T22:23:28.703Z,4.63
2018-12-23T22:26:00.784Z,4.68
2018-12-23T22:28:30.760Z,4.56
2018-12-23T22:31:00.733Z,4.58
2018-12-23T22:33:30.685Z,4.60
2018-12-23T22:36:00.611Z,4.54
2018-12-23T22:38:30.538Z,4.55
2018-12-23T22:41:12.085Z,4.58
2018-12-23T22:43:42.057Z,4.60
2018-12-23T22:46:12.015Z,4.56
2018-12-23T22:48:41.992Z,4.55
2018-12-23T22:51:11.967Z,4.54
2018-12-23T22:53:41.916Z,4.47
2018-12-23T22:56:11.861Z,4.43
2018-12-23T22:58:41.928Z,4.36
2018-12-23T23:01:12.003Z,4.34
2018-12-23T23:03:41.934Z,4.25
2018-12-23T23:06:11.870Z,4.21
2018-12-23T23:08:41.829Z,4.29
2018-12-23T23:11:11.765Z,4.30
2018-12-23T23:13:41.722Z,4.30
2018-12-23T23:16:11.593Z,4.39
2018-12-23T23:18:41.584Z,4.44
2018-12-23T23:21:11.542Z,4.42
2018-12-23T23:23:42.689Z,4.41
2018-12-23T23:26:12.674Z,4.37
2018-12-23T23:28:42.618Z,4.41
2018-12-23T23:31:12.530Z,4.36
2018-12-23T23:33:42.467Z,4.32
2018-12-23T23:36:12.402Z,4.34
2018-12-23T23:38:42.279Z,4.35
2018-12-23T23:41:12.189Z,4.36
2018-12-23T23:43:42.229Z,4.40
2018-12-23T23:46:12.135Z,4.38
2018-12-23T23:48:42.080Z,4.39
2018-12-23T23:51:11.985Z,4.49
2018-12-23T23:53:41.904Z,4.50
2018-12-23T23:56:11.820Z,4.50
2018-12-23T23:58:41.767Z,4.50
